Niteroi, Brazil
Current Conditions -  °F | °C
As of 4:00 PM on Thursday 18 Dec 2014 (Local Time) from SBRJ Reporting Station
Few Clouds Few Clouds  
Wind Chill: 88°   Ceiling: Unl
Heat Index: 91°   Visibility: 6mi
Dew Point: 68°   Wind: 16mph
Humidity: 52%   Direction: 170°S
Pressure: 29.71"   Gusts: NA
Location:  22.9°S, 43.13°W
Report Text: SBRJ 181800Z 17014KT 9999 FEW025 31/20 Q1006
Loading
Personal Weather Stations






























Interactive Weather Map New forecast layout! Learn more

10-Day Weather Forecast

Advertisements
Track Severe Weather on mobile